sensor_id;sensor_type;location;lat;lon;timestamp;P1;durP1;ratioP1;P2;durP2;ratioP2
3278;SDS011;1651;50.940;6.888;2023-08-12T00:01:39;14.90;;;11.23;;
3278;SDS011;1651;50.940;6.888;2023-08-12T00:04:05;11.00;;;6.90;;
3278;SDS011;1651;50.940;6.888;2023-08-12T00:06:31;9.33;;;7.00;;
3278;SDS011;1651;50.940;6.888;2023-08-12T00:08:57;14.10;;;8.50;;
3278;SDS011;1651;50.940;6.888;2023-08-12T00:11:23;11.70;;;8.77;;
3278;SDS011;1651;50.940;6.888;2023-08-12T00:13:49;21.13;;;15.00;;
3278;SDS011;1651;50.940;6.888;2023-08-12T00:16:15;18.70;;;14.27;;
3278;SDS011;1651;50.940;6.888;2023-08-12T00:18:41;23.70;;;16.60;;
3278;SDS011;1651;50.940;6.888;2023-08-12T00:21:08;23.30;;;15.40;;
3278;SDS011;1651;50.940;6.888;2023-08-12T00:23:38;26.07;;;16.30;;
3278;SDS011;1651;50.940;6.888;2023-08-12T00:26:05;24.90;;;16.77;;
3278;SDS011;1651;50.940;6.888;2023-08-12T00:28:31;22.13;;;16.80;;
3278;SDS011;1651;50.940;6.888;2023-08-12T00:30:57;25.87;;;15.10;;
3278;SDS011;1651;50.940;6.888;2023-08-12T00:33:23;23.90;;;16.60;;
3278;SDS011;1651;50.940;6.888;2023-08-12T00:35:51;24.50;;;16.00;;
3278;SDS011;1651;50.940;6.888;2023-08-12T00:38:28;22.90;;;16.70;;
3278;SDS011;1651;50.940;6.888;2023-08-12T01:02:17;27.47;;;17.13;;
3278;SDS011;1651;50.940;6.888;2023-08-12T01:04:46;20.23;;;15.00;;
3278;SDS011;1651;50.940;6.888;2023-08-12T01:07:14;22.47;;;16.70;;
3278;SDS011;1651;50.940;6.888;2023-08-12T01:09:40;25.53;;;16.10;;
3278;SDS011;1651;50.940;6.888;2023-08-12T01:12:29;18.67;;;14.27;;
3278;SDS011;1651;50.940;6.888;2023-08-12T01:17:49;22.30;;;16.20;;
3278;SDS011;1651;50.940;6.888;2023-08-12T01:20:17;23.30;;;16.80;;
3278;SDS011;1651;50.940;6.888;2023-08-12T01:22:49;23.80;;;15.67;;
3278;SDS011;1651;50.940;6.888;2023-08-12T01:25:18;28.83;;;16.90;;
3278;SDS011;1651;50.940;6.888;2023-08-12T01:27:44;24.07;;;15.37;;
3278;SDS011;1651;50.940;6.888;2023-08-12T01:30:12;24.57;;;15.43;;
3278;SDS011;1651;50.940;6.888;2023-08-12T01:35:15;27.03;;;16.87;;
3278;SDS011;1651;50.940;6.888;2023-08-12T01:37:42;23.37;;;15.80;;
3278;SDS011;1651;50.940;6.888;2023-08-12T01:40:09;19.23;;;14.77;;
3278;SDS011;1651;50.940;6.888;2023-08-12T01:42:35;23.10;;;16.10;;
3278;SDS011;1651;50.940;6.888;2023-08-12T01:45:02;27.97;;;15.40;;
3278;SDS011;1651;50.940;6.888;2023-08-12T01:47:30;25.30;;;16.40;;
3278;SDS011;1651;50.940;6.888;2023-08-12T01:49:58;25.90;;;16.70;;
3278;SDS011;1651;50.940;6.888;2023-08-12T01:52:24;27.00;;;15.20;;
3278;SDS011;1651;50.940;6.888;2023-08-12T01:54:50;25.53;;;15.97;;
3278;SDS011;1651;50.940;6.888;2023-08-12T01:57:16;18.90;;;15.40;;
3278;SDS011;1651;50.940;6.888;2023-08-12T01:59:42;21.67;;;14.70;;
3278;SDS011;1651;50.940;6.888;2023-08-12T02:02:09;20.50;;;15.40;;
3278;SDS011;1651;50.940;6.888;2023-08-12T02:04:35;21.10;;;15.80;;
3278;SDS011;1651;50.940;6.888;2023-08-12T02:07:02;23.67;;;15.80;;
3278;SDS011;1651;50.940;6.888;2023-08-12T02:09:28;22.57;;;17.00;;
3278;SDS011;1651;50.940;6.888;2023-08-12T02:11:55;21.60;;;15.60;;
3278;SDS011;1651;50.940;6.888;2023-08-12T02:14:21;21.37;;;16.50;;
3278;SDS011;1651;50.940;6.888;2023-08-12T02:16:47;21.20;;;16.00;;
3278;SDS011;1651;50.940;6.888;2023-08-12T02:19:13;21.60;;;16.40;;
3278;SDS011;1651;50.940;6.888;2023-08-12T02:21:39;23.67;;;17.10;;
3278;SDS011;1651;50.940;6.888;2023-08-12T02:24:05;19.67;;;15.43;;
3278;SDS011;1651;50.940;6.888;2023-08-12T02:26:31;22.60;;;16.90;;
3278;SDS011;1651;50.940;6.888;2023-08-12T02:28:58;20.20;;;15.30;;
3278;SDS011;1651;50.940;6.888;2023-08-12T02:31:24;23.50;;;15.60;;
3278;SDS011;1651;50.940;6.888;2023-08-12T02:33:50;22.33;;;15.90;;
3278;SDS011;1651;50.940;6.888;2023-08-12T02:36:16;24.27;;;15.30;;
3278;SDS011;1651;50.940;6.888;2023-08-12T02:38:42;26.03;;;16.40;;
3278;SDS011;1651;50.940;6.888;2023-08-12T02:41:09;29.07;;;17.90;;
3278;SDS011;1651;50.940;6.888;2023-08-12T02:43:35;22.27;;;16.20;;
3278;SDS011;1651;50.940;6.888;2023-08-12T02:46:01;21.63;;;16.33;;
3278;SDS011;1651;50.940;6.888;2023-08-12T02:48:27;22.20;;;16.53;;
3278;SDS011;1651;50.940;6.888;2023-08-12T02:50:53;22.40;;;15.93;;
3278;SDS011;1651;50.940;6.888;2023-08-12T02:53:20;24.93;;;17.80;;
3278;SDS011;1651;50.940;6.888;2023-08-12T02:55:46;25.97;;;18.60;;
3278;SDS011;1651;50.940;6.888;2023-08-12T02:58:14;25.87;;;17.30;;
3278;SDS011;1651;50.940;6.888;2023-08-12T03:00:40;29.87;;;19.50;;
3278;SDS011;1651;50.940;6.888;2023-08-12T03:03:08;30.70;;;19.80;;
3278;SDS011;1651;50.940;6.888;2023-08-12T03:05:34;30.50;;;17.40;;
3278;SDS011;1651;50.940;6.888;2023-08-12T03:08:01;25.20;;;17.43;;
3278;SDS011;1651;50.940;6.888;2023-08-12T03:10:29;27.57;;;19.30;;
3278;SDS011;1651;50.940;6.888;2023-08-12T03:12:55;31.00;;;20.20;;
3278;SDS011;1651;50.940;6.888;2023-08-12T03:15:21;32.63;;;19.90;;
3278;SDS011;1651;50.940;6.888;2023-08-12T03:17:48;28.50;;;19.20;;
3278;SDS011;1651;50.940;6.888;2023-08-12T03:20:14;26.17;;;19.47;;
3278;SDS011;1651;50.940;6.888;2023-08-12T03:22:59;33.47;;;19.60;;
3278;SDS011;1651;50.940;6.888;2023-08-12T03:25:53;33.13;;;20.80;;
3278;SDS011;1651;50.940;6.888;2023-08-12T03:28:28;31.07;;;18.53;;
3278;SDS011;1651;50.940;6.888;2023-08-12T03:30:54;26.80;;;17.90;;
3278;SDS011;1651;50.940;6.888;2023-08-12T03:33:20;25.70;;;17.50;;
3278;SDS011;1651;50.940;6.888;2023-08-12T03:35:47;25.13;;;18.70;;
3278;SDS011;1651;50.940;6.888;2023-08-12T03:44:28;27.03;;;15.50;;
3278;SDS011;1651;50.940;6.888;2023-08-12T03:46:54;31.07;;;16.30;;
3278;SDS011;1651;50.940;6.888;2023-08-12T03:49:20;22.60;;;16.03;;
3278;SDS011;1651;50.940;6.888;2023-08-12T03:51:46;25.00;;;16.63;;
3278;SDS011;1651;50.940;6.888;2023-08-12T03:54:12;22.10;;;15.97;;
3278;SDS011;1651;50.940;6.888;2023-08-12T03:56:38;18.80;;;14.20;;
3278;SDS011;1651;50.940;6.888;2023-08-12T03:59:04;21.13;;;15.30;;
3278;SDS011;1651;50.940;6.888;2023-08-12T04:01:30;19.73;;;14.53;;
3278;SDS011;1651;50.940;6.888;2023-08-12T04:03:56;22.03;;;12.80;;
3278;SDS011;1651;50.940;6.888;2023-08-12T04:06:30;20.17;;;13.40;;
3278;SDS011;1651;50.940;6.888;2023-08-12T04:08:56;17.57;;;13.87;;
3278;SDS011;1651;50.940;6.888;2023-08-12T04:11:24;20.53;;;13.27;;
3278;SDS011;1651;50.940;6.888;2023-08-12T04:14:14;17.40;;;13.43;;
3278;SDS011;1651;50.940;6.888;2023-08-12T04:16:43;19.73;;;12.00;;
3278;SDS011;1651;50.940;6.888;2023-08-12T04:19:09;17.53;;;11.97;;
3278;SDS011;1651;50.940;6.888;2023-08-12T04:21:35;15.13;;;11.23;;
3278;SDS011;1651;50.940;6.888;2023-08-12T04:24:01;17.60;;;10.97;;
3278;SDS011;1651;50.940;6.888;2023-08-12T04:26:28;17.13;;;11.77;;
3278;SDS011;1651;50.940;6.888;2023-08-12T04:28:54;15.63;;;12.17;;
3278;SDS011;1651;50.940;6.888;2023-08-12T04:31:22;19.70;;;12.20;;
3278;SDS011;1651;50.940;6.888;2023-08-12T04:33:48;14.67;;;11.57;;
3278;SDS011;1651;50.940;6.888;2023-08-12T04:36:17;16.90;;;12.50;;
3278;SDS011;1651;50.940;6.888;2023-08-12T04:38:44;17.00;;;12.10;;
3278;SDS011;1651;50.940;6.888;2023-08-12T04:41:12;18.70;;;11.07;;
3278;SDS011;1651;50.940;6.888;2023-08-12T04:43:38;17.87;;;12.13;;
3278;SDS011;1651;50.940;6.888;2023-08-12T04:46:04;14.53;;;11.23;;
3278;SDS011;1651;50.940;6.888;2023-08-12T04:48:30;16.40;;;11.07;;
3278;SDS011;1651;50.940;6.888;2023-08-12T04:50:56;12.70;;;10.20;;
3278;SDS011;1651;50.940;6.888;2023-08-12T04:53:28;17.67;;;11.27;;
3278;SDS011;1651;50.940;6.888;2023-08-12T04:55:55;15.80;;;11.57;;
3278;SDS011;1651;50.940;6.888;2023-08-12T04:58:22;16.57;;;10.80;;
3278;SDS011;1651;50.940;6.888;2023-08-12T05:00:49;12.30;;;9.97;;
3278;SDS011;1651;50.940;6.888;2023-08-12T05:03:16;14.03;;;10.27;;
3278;SDS011;1651;50.940;6.888;2023-08-12T05:05:42;14.43;;;9.80;;
3278;SDS011;1651;50.940;6.888;2023-08-12T05:08:08;12.33;;;8.63;;
3278;SDS011;1651;50.940;6.888;2023-08-12T05:10:34;12.37;;;8.97;;
3278;SDS011;1651;50.940;6.888;2023-08-12T05:13:00;13.60;;;9.23;;
3278;SDS011;1651;50.940;6.888;2023-08-12T05:15:27;11.23;;;9.17;;
3278;SDS011;1651;50.940;6.888;2023-08-12T05:17:53;9.80;;;8.90;;
3278;SDS011;1651;50.940;6.888;2023-08-12T05:20:21;12.50;;;8.60;;
3278;SDS011;1651;50.940;6.888;2023-08-12T05:22:47;9.70;;;7.80;;
3278;SDS011;1651;50.940;6.888;2023-08-12T05:25:13;9.10;;;8.17;;
3278;SDS011;1651;50.940;6.888;2023-08-12T05:27:40;12.97;;;8.63;;
3278;SDS011;1651;50.940;6.888;2023-08-12T05:30:07;12.40;;;7.73;;
3278;SDS011;1651;50.940;6.888;2023-08-12T05:32:33;8.70;;;7.77;;
3278;SDS011;1651;50.940;6.888;2023-08-12T05:34:59;12.17;;;8.10;;
3278;SDS011;1651;50.940;6.888;2023-08-12T05:37:25;9.23;;;8.23;;
3278;SDS011;1651;50.940;6.888;2023-08-12T05:39:51;8.40;;;7.47;;
3278;SDS011;1651;50.940;6.888;2023-08-12T05:42:18;10.40;;;8.23;;
3278;SDS011;1651;50.940;6.888;2023-08-12T05:44:45;8.93;;;7.20;;
3278;SDS011;1651;50.940;6.888;2023-08-12T05:47:11;10.27;;;8.27;;
3278;SDS011;1651;50.940;6.888;2023-08-12T05:49:37;12.20;;;9.57;;
3278;SDS011;1651;50.940;6.888;2023-08-12T05:52:03;15.00;;;9.67;;
3278;SDS011;1651;50.940;6.888;2023-08-12T05:54:29;17.47;;;10.67;;
3278;SDS011;1651;50.940;6.888;2023-08-12T05:56:55;11.07;;;9.80;;
3278;SDS011;1651;50.940;6.888;2023-08-12T05:59:21;12.97;;;9.23;;
3278;SDS011;1651;50.940;6.888;2023-08-12T06:01:47;11.80;;;10.23;;
3278;SDS011;1651;50.940;6.888;2023-08-12T06:04:13;16.27;;;9.23;;
3278;SDS011;1651;50.940;6.888;2023-08-12T06:06:39;12.23;;;10.37;;
3278;SDS011;1651;50.940;6.888;2023-08-12T06:09:05;24.40;;;12.00;;
3278;SDS011;1651;50.940;6.888;2023-08-12T06:11:31;16.47;;;11.50;;
3278;SDS011;1651;50.940;6.888;2023-08-12T06:13:57;15.23;;;11.63;;
3278;SDS011;1651;50.940;6.888;2023-08-12T06:16:23;18.83;;;12.80;;
3278;SDS011;1651;50.940;6.888;2023-08-12T06:18:49;26.13;;;13.57;;
3278;SDS011;1651;50.940;6.888;2023-08-12T06:21:15;19.37;;;13.07;;
3278;SDS011;1651;50.940;6.888;2023-08-12T06:23:43;17.30;;;12.37;;
3278;SDS011;1651;50.940;6.888;2023-08-12T06:26:09;18.73;;;12.37;;
3278;SDS011;1651;50.940;6.888;2023-08-12T06:28:35;22.60;;;11.80;;
3278;SDS011;1651;50.940;6.888;2023-08-12T06:31:01;24.77;;;13.00;;
3278;SDS011;1651;50.940;6.888;2023-08-12T06:33:27;20.00;;;12.83;;
3278;SDS011;1651;50.940;6.888;2023-08-12T06:35:53;18.10;;;12.50;;
3278;SDS011;1651;50.940;6.888;2023-08-12T06:38:20;22.13;;;12.40;;
3278;SDS011;1651;50.940;6.888;2023-08-12T06:40:49;10.77;;;8.20;;
3278;SDS011;1651;50.940;6.888;2023-08-12T06:43:17;10.93;;;9.27;;
3278;SDS011;1651;50.940;6.888;2023-08-12T06:45:46;10.10;;;8.63;;
3278;SDS011;1651;50.940;6.888;2023-08-12T06:48:12;12.33;;;8.97;;
3278;SDS011;1651;50.940;6.888;2023-08-12T06:50:38;9.37;;;8.27;;
3278;SDS011;1651;50.940;6.888;2023-08-12T06:53:04;9.47;;;8.10;;
3278;SDS011;1651;50.940;6.888;2023-08-12T06:55:30;9.70;;;7.97;;
3278;SDS011;1651;50.940;6.888;2023-08-12T06:57:56;9.23;;;7.33;;
3278;SDS011;1651;50.940;6.888;2023-08-12T07:00:22;7.33;;;6.17;;
3278;SDS011;1651;50.940;6.888;2023-08-12T07:02:48;5.80;;;5.03;;
3278;SDS011;1651;50.940;6.888;2023-08-12T07:05:14;14.23;;;5.00;;
3278;SDS011;1651;50.940;6.888;2023-08-12T07:07:40;7.13;;;3.83;;
3278;SDS011;1651;50.940;6.888;2023-08-12T07:10:06;4.83;;;4.33;;
3278;SDS011;1651;50.940;6.888;2023-08-12T07:12:32;6.63;;;3.97;;
3278;SDS011;1651;50.940;6.888;2023-08-12T07:14:58;6.13;;;4.10;;
3278;SDS011;1651;50.940;6.888;2023-08-12T07:17:24;4.40;;;3.70;;
3278;SDS011;1651;50.940;6.888;2023-08-12T07:19:50;4.60;;;4.20;;
3278;SDS011;1651;50.940;6.888;2023-08-12T07:22:16;4.77;;;4.10;;
3278;SDS011;1651;50.940;6.888;2023-08-12T07:24:44;5.00;;;4.37;;
3278;SDS011;1651;50.940;6.888;2023-08-12T07:27:10;4.90;;;4.40;;
3278;SDS011;1651;50.940;6.888;2023-08-12T07:29:36;5.90;;;4.37;;
3278;SDS011;1651;50.940;6.888;2023-08-12T07:32:02;5.80;;;4.40;;
3278;SDS011;1651;50.940;6.888;2023-08-12T07:34:29;6.17;;;5.57;;
3278;SDS011;1651;50.940;6.888;2023-08-12T07:36:55;8.70;;;4.37;;
3278;SDS011;1651;50.940;6.888;2023-08-12T07:39:21;10.90;;;4.60;;
3278;SDS011;1651;50.940;6.888;2023-08-12T07:41:47;9.60;;;4.60;;
3278;SDS011;1651;50.940;6.888;2023-08-12T07:44:13;4.73;;;4.00;;
3278;SDS011;1651;50.940;6.888;2023-08-12T07:46:39;6.10;;;5.17;;
3278;SDS011;1651;50.940;6.888;2023-08-12T07:49:05;5.23;;;4.63;;
3278;SDS011;1651;50.940;6.888;2023-08-12T07:51:31;4.70;;;3.50;;
3278;SDS011;1651;50.940;6.888;2023-08-12T07:53:59;7.00;;;4.63;;
3278;SDS011;1651;50.940;6.888;2023-08-12T07:56:25;6.40;;;4.63;;
3278;SDS011;1651;50.940;6.888;2023-08-12T07:58:51;4.10;;;3.27;;
3278;SDS011;1651;50.940;6.888;2023-08-12T08:01:17;4.10;;;3.20;;
3278;SDS011;1651;50.940;6.888;2023-08-12T08:03:43;3.77;;;3.10;;
3278;SDS011;1651;50.940;6.888;2023-08-12T08:06:09;6.23;;;3.03;;
3278;SDS011;1651;50.940;6.888;2023-08-12T08:08:35;4.13;;;2.87;;
3278;SDS011;1651;50.940;6.888;2023-08-12T08:11:01;2.80;;;2.47;;
3278;SDS011;1651;50.940;6.888;2023-08-12T08:13:27;3.70;;;2.80;;
3278;SDS011;1651;50.940;6.888;2023-08-12T08:15:53;4.97;;;2.80;;
3278;SDS011;1651;50.940;6.888;2023-08-12T08:18:19;3.43;;;2.50;;
3278;SDS011;1651;50.940;6.888;2023-08-12T08:20:45;3.73;;;2.80;;
3278;SDS011;1651;50.940;6.888;2023-08-12T08:23:11;2.60;;;2.40;;
3278;SDS011;1651;50.940;6.888;2023-08-12T08:25:38;3.40;;;2.40;;
3278;SDS011;1651;50.940;6.888;2023-08-12T08:28:04;3.70;;;2.60;;
3278;SDS011;1651;50.940;6.888;2023-08-12T08:30:30;4.67;;;2.40;;
3278;SDS011;1651;50.940;6.888;2023-08-12T08:32:57;2.47;;;2.27;;
3278;SDS011;1651;50.940;6.888;2023-08-12T08:35:23;3.00;;;2.80;;
3278;SDS011;1651;50.940;6.888;2023-08-12T08:37:55;4.27;;;2.50;;
3278;SDS011;1651;50.940;6.888;2023-08-12T08:40:22;5.23;;;3.10;;
3278;SDS011;1651;50.940;6.888;2023-08-12T08:42:51;5.90;;;2.80;;
3278;SDS011;1651;50.940;6.888;2023-08-12T08:45:22;3.83;;;2.60;;
3278;SDS011;1651;50.940;6.888;2023-08-12T08:47:52;4.47;;;2.67;;
3278;SDS011;1651;50.940;6.888;2023-08-12T08:50:35;2.87;;;2.57;;
3278;SDS011;1651;50.940;6.888;2023-08-12T08:53:02;3.70;;;2.87;;
3278;SDS011;1651;50.940;6.888;2023-08-12T08:55:48;2.87;;;2.50;;
3278;SDS011;1651;50.940;6.888;2023-08-12T08:58:15;3.00;;;2.70;;
3278;SDS011;1651;50.940;6.888;2023-08-12T09:00:41;3.57;;;2.70;;
3278;SDS011;1651;50.940;6.888;2023-08-12T09:03:08;3.03;;;2.73;;
3278;SDS011;1651;50.940;6.888;2023-08-12T09:05:49;2.70;;;2.23;;
3278;SDS011;1651;50.940;6.888;2023-08-12T09:08:16;3.60;;;2.37;;
3278;SDS011;1651;50.940;6.888;2023-08-12T09:13:55;6.27;;;2.50;;
3278;SDS011;1651;50.940;6.888;2023-08-12T09:19:06;4.53;;;2.30;;
3278;SDS011;1651;50.940;6.888;2023-08-12T09:21:32;3.13;;;2.10;;
3278;SDS011;1651;50.940;6.888;2023-08-12T09:24:03;3.53;;;1.80;;
3278;SDS011;1651;50.940;6.888;2023-08-12T09:26:29;3.20;;;2.13;;
3278;SDS011;1651;50.940;6.888;2023-08-12T09:28:55;2.60;;;2.20;;
3278;SDS011;1651;50.940;6.888;2023-08-12T09:33:48;2.10;;;1.90;;
3278;SDS011;1651;50.940;6.888;2023-08-12T09:36:15;3.37;;;2.40;;
3278;SDS011;1651;50.940;6.888;2023-08-12T09:38:42;2.90;;;2.00;;
3278;SDS011;1651;50.940;6.888;2023-08-12T09:41:10;2.10;;;1.90;;
3278;SDS011;1651;50.940;6.888;2023-08-12T09:43:39;3.20;;;1.90;;
3278;SDS011;1651;50.940;6.888;2023-08-12T09:46:06;1.63;;;1.50;;
3278;SDS011;1651;50.940;6.888;2023-08-12T09:48:33;1.73;;;1.50;;
3278;SDS011;1651;50.940;6.888;2023-08-12T09:51:01;1.97;;;1.77;;
3278;SDS011;1651;50.940;6.888;2023-08-12T09:53:29;2.00;;;1.73;;
3278;SDS011;1651;50.940;6.888;2023-08-12T09:55:55;2.10;;;1.90;;
3278;SDS011;1651;50.940;6.888;2023-08-12T09:58:25;2.10;;;1.70;;
3278;SDS011;1651;50.940;6.888;2023-08-12T10:00:54;3.67;;;1.57;;
3278;SDS011;1651;50.940;6.888;2023-08-12T10:03:21;1.80;;;1.70;;
3278;SDS011;1651;50.940;6.888;2023-08-12T10:08:27;2.00;;;1.80;;
3278;SDS011;1651;50.940;6.888;2023-08-12T10:10:53;2.20;;;1.60;;
3278;SDS011;1651;50.940;6.888;2023-08-12T10:13:20;2.07;;;1.70;;
3278;SDS011;1651;50.940;6.888;2023-08-12T10:15:47;2.53;;;1.60;;
3278;SDS011;1651;50.940;6.888;2023-08-12T10:18:13;2.20;;;2.00;;
3278;SDS011;1651;50.940;6.888;2023-08-12T10:20:42;2.47;;;1.40;;
3278;SDS011;1651;50.940;6.888;2023-08-12T10:23:12;1.80;;;1.40;;
3278;SDS011;1651;50.940;6.888;2023-08-12T10:28:10;1.67;;;1.40;;
3278;SDS011;1651;50.940;6.888;2023-08-12T10:30:37;3.50;;;1.63;;
3278;SDS011;1651;50.940;6.888;2023-08-12T10:33:05;5.80;;;1.50;;
3278;SDS011;1651;50.940;6.888;2023-08-12T10:35:40;1.80;;;1.37;;
3278;SDS011;1651;50.940;6.888;2023-08-12T10:38:09;2.37;;;1.40;;
3278;SDS011;1651;50.940;6.888;2023-08-12T10:40:36;4.20;;;1.40;;
3278;SDS011;1651;50.940;6.888;2023-08-12T10:43:02;2.20;;;1.73;;
3278;SDS011;1651;50.940;6.888;2023-08-12T10:48:27;1.97;;;1.47;;
3278;SDS011;1651;50.940;6.888;2023-08-12T10:50:55;3.20;;;1.50;;
3278;SDS011;1651;50.940;6.888;2023-08-12T10:53:25;2.00;;;1.50;;
3278;SDS011;1651;50.940;6.888;2023-08-12T10:55:55;1.70;;;1.50;;
3278;SDS011;1651;50.940;6.888;2023-08-12T10:59:07;1.70;;;1.30;;
3278;SDS011;1651;50.940;6.888;2023-08-12T11:01:11;2.13;;;1.87;;
3278;SDS011;1651;50.940;6.888;2023-08-12T11:03:42;1.33;;;1.23;;
3278;SDS011;1651;50.940;6.888;2023-08-12T11:06:09;1.47;;;1.13;;
3278;SDS011;1651;50.940;6.888;2023-08-12T11:08:35;1.70;;;1.60;;
3278;SDS011;1651;50.940;6.888;2023-08-12T11:11:02;1.40;;;1.30;;
3278;SDS011;1651;50.940;6.888;2023-08-12T11:13:28;1.70;;;1.27;;
3278;SDS011;1651;50.940;6.888;2023-08-12T11:18:24;1.67;;;1.20;;
3278;SDS011;1651;50.940;6.888;2023-08-12T11:20:50;1.30;;;1.20;;
3278;SDS011;1651;50.940;6.888;2023-08-12T11:23:27;1.77;;;1.63;;
3278;SDS011;1651;50.940;6.888;2023-08-12T11:25:54;1.40;;;1.30;;
3278;SDS011;1651;50.940;6.888;2023-08-12T11:28:20;1.90;;;1.43;;
3278;SDS011;1651;50.940;6.888;2023-08-12T11:30:48;1.87;;;1.53;;
3278;SDS011;1651;50.940;6.888;2023-08-12T11:33:15;2.30;;;1.53;;
3278;SDS011;1651;50.940;6.888;2023-08-12T11:35:43;2.90;;;1.70;;
3278;SDS011;1651;50.940;6.888;2023-08-12T11:38:09;2.70;;;1.50;;
3278;SDS011;1651;50.940;6.888;2023-08-12T11:40:35;2.40;;;1.53;;
3278;SDS011;1651;50.940;6.888;2023-08-12T11:43:01;2.60;;;1.67;;
3278;SDS011;1651;50.940;6.888;2023-08-12T11:45:34;2.10;;;1.90;;
3278;SDS011;1651;50.940;6.888;2023-08-12T11:48:02;2.03;;;1.80;;
3278;SDS011;1651;50.940;6.888;2023-08-12T11:50:29;1.97;;;1.77;;
3278;SDS011;1651;50.940;6.888;2023-08-12T11:52:56;1.77;;;1.67;;
3278;SDS011;1651;50.940;6.888;2023-08-12T11:55:23;2.20;;;1.20;;
3278;SDS011;1651;50.940;6.888;2023-08-12T11:57:50;1.60;;;1.50;;
3278;SDS011;1651;50.940;6.888;2023-08-12T12:00:17;1.83;;;1.63;;
3278;SDS011;1651;50.940;6.888;2023-08-12T12:02:51;2.23;;;1.57;;
3278;SDS011;1651;50.940;6.888;2023-08-12T12:05:20;2.70;;;1.70;;
3278;SDS011;1651;50.940;6.888;2023-08-12T12:07:48;1.50;;;1.40;;
3278;SDS011;1651;50.940;6.888;2023-08-12T12:10:17;2.20;;;1.47;;
3278;SDS011;1651;50.940;6.888;2023-08-12T12:12:44;1.60;;;1.37;;
3278;SDS011;1651;50.940;6.888;2023-08-12T12:15:12;1.33;;;1.20;;
3278;SDS011;1651;50.940;6.888;2023-08-12T12:17:38;1.20;;;1.07;;
3278;SDS011;1651;50.940;6.888;2023-08-12T12:20:06;1.40;;;1.10;;
3278;SDS011;1651;50.940;6.888;2023-08-12T12:25:12;1.50;;;1.40;;
3278;SDS011;1651;50.940;6.888;2023-08-12T12:27:39;1.67;;;1.17;;
3278;SDS011;1651;50.940;6.888;2023-08-12T12:30:12;1.50;;;1.27;;
3278;SDS011;1651;50.940;6.888;2023-08-12T12:32:39;1.43;;;1.33;;
3278;SDS011;1651;50.940;6.888;2023-08-12T12:35:05;2.27;;;1.50;;
3278;SDS011;1651;50.940;6.888;2023-08-12T12:38:02;1.23;;;1.10;;
3278;SDS011;1651;50.940;6.888;2023-08-12T12:40:45;2.60;;;1.40;;
3278;SDS011;1651;50.940;6.888;2023-08-12T12:43:11;1.30;;;1.20;;
3278;SDS011;1651;50.940;6.888;2023-08-12T12:45:38;1.47;;;1.33;;
3278;SDS011;1651;50.940;6.888;2023-08-12T12:48:04;1.43;;;1.20;;
3278;SDS011;1651;50.940;6.888;2023-08-12T12:50:33;1.20;;;1.10;;
3278;SDS011;1651;50.940;6.888;2023-08-12T12:53:00;2.90;;;1.40;;
3278;SDS011;1651;50.940;6.888;2023-08-12T12:55:26;1.30;;;1.00;;
3278;SDS011;1651;50.940;6.888;2023-08-12T12:57:52;2.60;;;1.30;;
3278;SDS011;1651;50.940;6.888;2023-08-12T13:00:18;1.70;;;1.50;;
3278;SDS011;1651;50.940;6.888;2023-08-12T13:07:43;2.53;;;1.60;;
3278;SDS011;1651;50.940;6.888;2023-08-12T13:10:14;3.60;;;2.40;;
3278;SDS011;1651;50.940;6.888;2023-08-12T13:12:39;1.93;;;1.70;;
3278;SDS011;1651;50.940;6.888;2023-08-12T13:15:06;1.87;;;1.77;;
3278;SDS011;1651;50.940;6.888;2023-08-12T13:17:32;2.70;;;1.70;;
3278;SDS011;1651;50.940;6.888;2023-08-12T13:19:58;1.10;;;1.00;;
3278;SDS011;1651;50.940;6.888;2023-08-12T13:22:26;2.00;;;1.30;;
3278;SDS011;1651;50.940;6.888;2023-08-12T13:24:52;2.33;;;1.23;;
3278;SDS011;1651;50.940;6.888;2023-08-12T13:27:18;1.30;;;1.10;;
3278;SDS011;1651;50.940;6.888;2023-08-12T13:29:44;2.00;;;1.17;;
3278;SDS011;1651;50.940;6.888;2023-08-12T13:32:10;1.20;;;1.00;;
3278;SDS011;1651;50.940;6.888;2023-08-12T13:34:37;1.73;;;1.27;;
3278;SDS011;1651;50.940;6.888;2023-08-12T13:37:03;1.40;;;1.00;;
3278;SDS011;1651;50.940;6.888;2023-08-12T13:39:29;0.97;;;0.70;;
3278;SDS011;1651;50.940;6.888;2023-08-12T13:41:55;1.20;;;0.90;;
3278;SDS011;1651;50.940;6.888;2023-08-12T13:44:21;1.13;;;1.03;;
3278;SDS011;1651;50.940;6.888;2023-08-12T13:46:51;1.10;;;1.00;;
3278;SDS011;1651;50.940;6.888;2023-08-12T13:49:18;1.20;;;1.00;;
3278;SDS011;1651;50.940;6.888;2023-08-12T13:51:44;1.30;;;1.00;;
3278;SDS011;1651;50.940;6.888;2023-08-12T13:54:10;1.17;;;0.97;;
3278;SDS011;1651;50.940;6.888;2023-08-12T13:56:36;2.93;;;1.10;;
3278;SDS011;1651;50.940;6.888;2023-08-12T13:59:02;1.60;;;1.00;;
3278;SDS011;1651;50.940;6.888;2023-08-12T14:01:29;1.10;;;0.90;;
3278;SDS011;1651;50.940;6.888;2023-08-12T14:03:55;1.20;;;0.93;;
3278;SDS011;1651;50.940;6.888;2023-08-12T14:06:21;1.00;;;0.90;;
3278;SDS011;1651;50.940;6.888;2023-08-12T14:08:47;0.93;;;0.80;;
3278;SDS011;1651;50.940;6.888;2023-08-12T14:11:13;1.40;;;1.20;;
3278;SDS011;1651;50.940;6.888;2023-08-12T14:13:41;1.63;;;0.90;;
3278;SDS011;1651;50.940;6.888;2023-08-12T14:16:07;1.00;;;0.70;;
3278;SDS011;1651;50.940;6.888;2023-08-12T14:18:33;1.10;;;0.90;;
3278;SDS011;1651;50.940;6.888;2023-08-12T14:20:59;1.27;;;0.93;;
3278;SDS011;1651;50.940;6.888;2023-08-12T14:23:25;1.17;;;1.07;;
3278;SDS011;1651;50.940;6.888;2023-08-12T14:25:51;1.57;;;0.80;;
3278;SDS011;1651;50.940;6.888;2023-08-12T14:28:17;1.07;;;0.70;;
3278;SDS011;1651;50.940;6.888;2023-08-12T14:30:43;0.90;;;0.70;;
3278;SDS011;1651;50.940;6.888;2023-08-12T14:33:09;1.17;;;0.80;;
3278;SDS011;1651;50.940;6.888;2023-08-12T14:35:35;0.80;;;0.70;;
3278;SDS011;1651;50.940;6.888;2023-08-12T14:38:01;0.80;;;0.70;;
3278;SDS011;1651;50.940;6.888;2023-08-12T14:40:27;0.90;;;0.60;;
3278;SDS011;1651;50.940;6.888;2023-08-12T14:42:54;1.20;;;1.10;;
3278;SDS011;1651;50.940;6.888;2023-08-12T14:45:20;1.33;;;0.87;;
3278;SDS011;1651;50.940;6.888;2023-08-12T14:47:46;0.97;;;0.70;;
3278;SDS011;1651;50.940;6.888;2023-08-12T14:50:12;1.00;;;0.80;;
3278;SDS011;1651;50.940;6.888;2023-08-12T14:52:38;1.67;;;0.70;;
3278;SDS011;1651;50.940;6.888;2023-08-12T14:55:04;0.90;;;0.73;;
3278;SDS011;1651;50.940;6.888;2023-08-12T14:57:30;2.03;;;0.80;;
3278;SDS011;1651;50.940;6.888;2023-08-12T14:59:56;1.53;;;0.80;;
3278;SDS011;1651;50.940;6.888;2023-08-12T15:02:23;2.70;;;1.30;;
3278;SDS011;1651;50.940;6.888;2023-08-12T15:04:55;1.47;;;0.80;;
3278;SDS011;1651;50.940;6.888;2023-08-12T15:10:22;1.10;;;0.90;;
3278;SDS011;1651;50.940;6.888;2023-08-12T15:13:11;1.40;;;0.87;;
3278;SDS011;1651;50.940;6.888;2023-08-12T15:15:39;1.07;;;0.90;;
3278;SDS011;1651;50.940;6.888;2023-08-12T15:18:13;0.80;;;0.70;;
3278;SDS011;1651;50.940;6.888;2023-08-12T15:20:59;1.80;;;0.80;;
3278;SDS011;1651;50.940;6.888;2023-08-12T15:26:43;1.00;;;0.90;;
3278;SDS011;1651;50.940;6.888;2023-08-12T15:29:28;1.00;;;0.80;;
3278;SDS011;1651;50.940;6.888;2023-08-12T15:32:03;3.20;;;0.90;;
3278;SDS011;1651;50.940;6.888;2023-08-12T15:34:36;1.63;;;1.30;;
3278;SDS011;1651;50.940;6.888;2023-08-12T15:37:35;1.87;;;0.90;;
3278;SDS011;1651;50.940;6.888;2023-08-12T15:40:05;2.20;;;1.03;;
3278;SDS011;1651;50.940;6.888;2023-08-12T15:43:06;1.23;;;0.90;;
3278;SDS011;1651;50.940;6.888;2023-08-12T15:45:54;1.77;;;1.00;;
3278;SDS011;1651;50.940;6.888;2023-08-12T15:48:55;4.17;;;1.10;;
3278;SDS011;1651;50.940;6.888;2023-08-12T15:54:35;1.40;;;1.00;;
3278;SDS011;1651;50.940;6.888;2023-08-12T15:57:09;1.10;;;0.80;;
3278;SDS011;1651;50.940;6.888;2023-08-12T16:02:49;1.50;;;1.23;;
3278;SDS011;1651;50.940;6.888;2023-08-12T16:17:53;2.57;;;1.87;;
3278;SDS011;1651;50.940;6.888;2023-08-12T16:20:22;2.40;;;1.50;;
3278;SDS011;1651;50.940;6.888;2023-08-12T17:22:17;2.50;;;1.70;;
3278;SDS011;1651;50.940;6.888;2023-08-12T17:31:32;4.20;;;1.60;;
3278;SDS011;1651;50.940;6.888;2023-08-12T17:37:58;3.00;;;1.90;;
3278;SDS011;1651;50.940;6.888;2023-08-12T17:59:43;2.70;;;1.50;;
3278;SDS011;1651;50.940;6.888;2023-08-12T18:02:20;2.33;;;1.60;;
3278;SDS011;1651;50.940;6.888;2023-08-12T18:04:46;2.60;;;1.73;;